Thunder radar more information blitzortung!


Radar de pluja more information rain snow radar


Visita la nostra xarxa de llocs de meteo:

Template documentation
and downloads

And another site



No particular awareness of the weather is required.    There are no Weather-warnings

Pagina Historial Weather Underground text

Diari Resum Octubre 9, 2017 Unitats:  Imperial    Mètric   Tant
« Previous Dia
SegĂźent Dia »
Diari Setmana Mensual Anual Personalitzada
  Maxima: Minima: Media:
Temperatura: TemperatureC °F 12.1 °F 17.7 °F
Punt de rosada: DewpointC °F 8.8 °F 12.1 °F
Humitat: Humidity % 51 % 71 %
Wind Speed: WindSpeedKMH mph 0.0 mph 3.7 mph
RĂ fegues de vent: WindSpeedGustKMH mph - -
Vent:- - SSE
Pression baro: PressurehPa in 1018.8 in -
Precipitacions: 0.0 in    
Historical Graphs
 
 
Dades de taula per Octubre 9, 2017
Temps Temperatura Punt de rosada Pression baro Vent Wind Speed RĂ fegues de vent Humitat Rainfall Rate (Hourly)
TemperatureC °F DewpointC °F PressurehPa in Calm     Humidity % HourlyPrecipMM in
00:03 16.5 °F 12.4 °F 1020.9 in Calm     77 % 0.0 in
00:08 16.4 °F 12.6 °F 1020.9 in Calm     78 % 0.0 in
00:13 16.3 °F 12.3 °F 1020.9 in Calm     77 % 0.0 in
00:18 16.3 °F 12.3 °F 1020.9 in Calm     77 % 0.0 in
00:23 16.2 °F 12.2 °F 1020.9 in Calm     77 % 0.0 in
00:28 16.2 °F 12.3 °F 1020.9 in Calm     78 % 0.0 in
00:33 16.1 °F 12.3 °F 1020.9 in Calm     78 % 0.0 in
00:38 16.0 °F 12.2 °F 1020.9 in Calm     78 % 0.0 in
00:43 15.9 °F 12.1 °F 1020.9 in Calm     78 % 0.0 in
00:48 15.8 °F 11.9 °F 1020.9 in Calm     78 % 0.0 in
00:53 15.7 °F 11.9 °F 1020.9 in Calm     78 % 0.0 in
00:58 15.6 °F 11.8 °F 1020.9 in Calm     78 % 0.0 in
01:03 15.6 °F 11.8 °F 1020.9 in Calm     78 % 0.0 in
01:08 15.5 °F 11.7 °F 1020.9 in Calm     78 % 0.0 in
01:14 15.4 °F 11.6 °F 1019.9 in Calm     78 % 0.0 in
01:19 15.4 °F 11.8 °F 1019.9 in Calm     79 % 0.0 in
01:24 15.3 °F 11.7 °F 1019.9 in Calm     79 % 0.0 in
01:29 15.4 °F 11.6 °F 1019.9 in Calm     78 % 0.0 in
01:34 15.3 °F 11.7 °F 1019.9 in Calm     79 % 0.0 in
01:39 15.3 °F 11.7 °F 1019.9 in Calm     79 % 0.0 in
01:44 15.3 °F 11.5 °F 1019.9 in Calm     78 % 0.0 in
01:49 15.2 °F 11.4 °F 1019.9 in Calm     78 % 0.0 in
01:54 15.2 °F 11.6 °F 1019.9 in Calm     79 % 0.0 in
01:59 15.2 °F 11.4 °F 1019.9 in Calm     78 % 0.0 in
02:04 15.1 °F 11.5 °F 1019.9 in Calm     79 % 0.0 in
02:09 15.0 °F 11.4 °F 1019.9 in East 2.3 mph 2.3 mph 79 % 0.0 in
02:14 14.9 °F 11.3 °F 1019.9 in East 3.7 mph 3.7 mph 79 % 0.0 in
02:19 14.8 °F 11.2 °F 1019.9 in ENE 5.6 mph 5.6 mph 79 % 0.0 in
02:24 14.6 °F 11.0 °F 1019.9 in East 5.6 mph 5.6 mph 79 % 0.0 in
02:29 14.6 °F 11.0 °F 1019.9 in East 3.9 mph 4.2 mph 79 % 0.0 in
02:34 14.5 °F 10.9 °F 1019.9 in ENE 5.6 mph 5.6 mph 79 % 0.0 in
02:39 14.3 °F 10.7 °F 1019.9 in ESE 3.7 mph 3.7 mph 79 % 0.0 in
02:44 14.1 °F 10.7 °F 1019.9 in ESE 3.7 mph 3.7 mph 80 % 0.0 in
02:49 14.0 °F 10.4 °F 1019.9 in ENE 3.7 mph 3.7 mph 79 % 0.0 in
02:54 13.9 °F 10.3 °F 1019.9 in NE 3.7 mph 3.7 mph 79 % 0.0 in
02:59 13.8 °F 10.2 °F 1020.9 in NE 1.9 mph   79 % 0.0 in
03:04 13.8 °F 10.4 °F 1020.9 in Calm     80 % 0.0 in
03:09 13.7 °F 10.3 °F 1020.9 in Calm     80 % 0.0 in
03:14 13.6 °F 10.0 °F 1020.9 in NE 3.7 mph 3.7 mph 79 % 0.0 in
03:19 13.5 °F 9.9 °F 1020.9 in SW 3.7 mph 3.7 mph 79 % 0.0 in
03:24 13.4 °F 10.0 °F 1020.9 in Calm     80 % 0.0 in
03:29 13.3 °F 9.9 °F 1019.9 in SW 1.4 mph   80 % 0.0 in
03:34 13.3 °F 9.9 °F 1019.9 in Calm     80 % 0.0 in
03:39 13.3 °F 9.9 °F 1019.9 in Calm     80 % 0.0 in
03:44 13.3 °F 9.9 °F 1019.9 in SW 1.9 mph 1.9 mph 80 % 0.0 in
03:49 13.2 °F 9.8 °F 1019.9 in Calm     80 % 0.0 in
03:54 13.1 °F 9.7 °F 1019.9 in SW 1.9 mph   80 % 0.0 in
03:59 13.0 °F 9.6 °F 1019.9 in Calm     80 % 0.0 in
04:04 13.0 °F 9.6 °F 1019.9 in SW 3.7 mph   80 % 0.0 in
04:09 12.9 °F 9.6 °F 1019.9 in SW 3.9 mph 3.9 mph 80 % 0.0 in
04:14 12.9 °F 9.3 °F 1019.9 in SW 3.2 mph 3.2 mph 79 % 0.0 in
04:19 13.0 °F 9.4 °F 1019.9 in Calm     79 % 0.0 in
04:24 13.0 °F 9.6 °F 1019.9 in WSW 3.7 mph   80 % 0.0 in
04:29 13.0 °F 9.6 °F 1019.9 in WSW 1.9 mph 1.9 mph 80 % 0.0 in
04:34 13.0 °F 9.6 °F 1019.9 in WSW 2.3 mph 2.3 mph 80 % 0.0 in
04:36 13.0 °F 9.6 °F 1019.9 in WSW 1.9 mph   80 % 0.0 in
04:41 13.1 °F 9.7 °F 1019.9 in WSW 1.9 mph 1.9 mph 80 % 0.0 in
04:46 13.1 °F 9.7 °F 1019.9 in SW 3.7 mph 3.7 mph 80 % 0.0 in
04:51 13.1 °F 9.7 °F 1019.9 in SW 1.9 mph   80 % 0.0 in
04:56 13.1 °F 9.7 °F 1019.9 in Calm     80 % 0.0 in
05:01 13.0 °F 9.6 °F 1019.9 in Calm     80 % 0.0 in
05:06 13.0 °F 9.6 °F 1019.9 in Calm     80 % 0.0 in
05:12 13.0 °F 9.6 °F 1019.9 in Calm     80 % 0.0 in
05:17 12.9 °F 9.6 °F 1019.9 in Calm     80 % 0.0 in
05:19 12.9 °F 9.6 °F 1019.9 in Calm     80 % 0.0 in
05:22 12.8 °F 9.4 °F 1019.9 in Calm     80 % 0.0 in
05:23 12.8 °F 9.4 °F 1019.9 in Calm     80 % 0.0 in
05:24 12.8 °F 9.4 °F 1019.9 in Calm     80 % 0.0 in
05:26 12.8 °F 9.4 °F 1019.9 in Calm     80 % 0.0 in
05:27 12.7 °F 9.3 °F 1019.9 in Calm     80 % 0.0 in
05:32 12.7 °F 9.3 °F 1019.9 in Calm     80 % 0.0 in
05:35 12.7 °F 9.3 °F 1019.9 in Calm     80 % 0.0 in
05:40 12.7 °F 9.3 °F 1019.9 in SW 3.7 mph 3.7 mph 80 % 0.0 in
05:42 12.7 °F 9.3 °F 1019.9 in SW 2.3 mph 2.3 mph 80 % 0.0 in
05:47 12.7 °F 9.3 °F 1019.9 in Calm     80 % 0.0 in
05:52 12.7 °F 9.5 °F 1019.9 in Calm     81 % 0.0 in
05:57 12.7 °F 9.3 °F 1019.9 in Calm     80 % 0.0 in
06:02 12.7 °F 9.3 °F 1019.9 in Calm     80 % 0.0 in
06:07 12.8 °F 9.4 °F 1019.9 in WSW 2.6 mph 2.6 mph 80 % 0.0 in
06:12 12.9 °F 9.6 °F 1019.9 in WSW 1.9 mph 1.9 mph 80 % 0.0 in
06:22 12.8 °F 9.4 °F 1019.9 in WSW 3.7 mph 3.7 mph 80 % 0.0 in
06:27 12.7 °F 9.3 °F 1019.9 in Calm     80 % 0.0 in
06:32 12.6 °F 9.2 °F 1019.9 in Calm     80 % 0.0 in
06:37 12.6 °F 9.2 °F 1019.9 in Calm     80 % 0.0 in
06:42 12.7 °F 9.5 °F 1019.9 in Calm     81 % 0.0 in
06:44 12.7 °F 9.5 °F 1019.9 in Calm     81 % 0.0 in
06:49 12.7 °F 9.3 °F 1019.9 in Calm     80 % 0.0 in
06:54 12.6 °F 9.2 °F 1019.9 in Calm     80 % 0.0 in
06:59 12.6 °F 9.4 °F 1019.9 in Calm     81 % 0.0 in
07:09 12.6 °F 9.2 °F 1019.9 in Calm     80 % 0.0 in
07:14 12.6 °F 9.4 °F 1019.9 in Calm     81 % 0.0 in
07:19 12.7 °F 9.5 °F 1019.9 in North 3.2 mph 3.2 mph 81 % 0.0 in
07:24 12.5 °F 9.3 °F 1019.9 in NE 2.3 mph 2.6 mph 81 % 0.0 in
07:29 12.5 °F 9.3 °F 1019.9 in NE 2.6 mph 2.6 mph 81 % 0.0 in
07:39 12.5 °F 9.3 °F 1019.9 in NE 3.7 mph 3.7 mph 81 % 0.0 in
07:44 12.4 °F 9.2 °F 1019.9 in North 1.9 mph   81 % 0.0 in
07:49 12.3 °F 8.9 °F 1019.9 in WNW 2.6 mph 2.6 mph 80 % 0.0 in
07:54 12.2 °F 8.8 °F 1019.9 in WSW 3.7 mph 3.7 mph 80 % 0.0 in
07:59 12.1 °F 8.9 °F 1019.9 in Calm     81 % 0.0 in
08:04 12.1 °F 8.9 °F 1019.9 in Calm     81 % 0.0 in
08:09 12.1 °F 8.9 °F 1019.9 in Calm     81 % 0.0 in
08:14 12.1 °F 8.9 °F 1019.9 in SW 3.7 mph 3.7 mph 81 % 0.0 in
08:19 12.1 °F 8.9 °F 1019.9 in Calm     81 % 0.0 in
08:24 12.1 °F 8.9 °F 1019.9 in SW 3.2 mph 3.2 mph 81 % 0.0 in
08:29 12.1 °F 8.9 °F 1019.9 in SW 4.2 mph 4.2 mph 81 % 0.0 in
08:34 12.2 °F 9.1 °F 1019.9 in WSW 3.2 mph 3.2 mph 81 % 0.0 in
08:39 12.3 °F 9.1 °F 1019.9 in SW 3.9 mph 3.9 mph 81 % 0.0 in
08:44 12.3 °F 9.1 °F 1019.9 in SW 3.7 mph 3.7 mph 81 % 0.0 in
08:49 12.4 °F 9.2 °F 1019.9 in WSW 3.7 mph 3.7 mph 81 % 0.0 in
08:54 12.6 °F 9.6 °F 1019.9 in WSW 2.6 mph 2.6 mph 82 % 0.0 in
08:59 12.8 °F 9.6 °F 1020.9 in WSW 2.3 mph   81 % 0.0 in
09:04 13.2 °F 10.2 °F 1020.9 in SW 1.9 mph 2.3 mph 82 % 0.0 in
09:09 13.6 °F 10.4 °F 1020.9 in SW 2.6 mph 2.6 mph 81 % 0.0 in
09:14 14.0 °F 10.6 °F 1020.9 in ESE 2.3 mph   80 % 0.0 in
09:19 14.6 °F 11.0 °F 1020.9 in NE 2.3 mph 2.3 mph 79 % 0.0 in
09:24 14.8 °F 11.2 °F 1020.9 in SSE 2.6 mph   79 % 0.0 in
09:29 14.3 °F 10.5 °F 1020.9 in WSW 3.7 mph 3.7 mph 78 % 0.0 in
09:34 14.7 °F 10.9 °F 1020.9 in WSW 3.7 mph 3.7 mph 78 % 0.0 in
09:39 15.0 °F 11.2 °F 1020.9 in South 1.9 mph   78 % 0.0 in
09:44 15.0 °F 11.0 °F 1021.9 in SW 3.7 mph 3.7 mph 77 % 0.0 in
09:49 14.9 °F 10.9 °F 1021.9 in SW 1.9 mph 2.6 mph 77 % 0.0 in
09:54 15.5 °F 11.3 °F 1021.9 in NE 2.3 mph   76 % 0.0 in
09:59 15.8 °F 11.2 °F 1020.9 in East 4.2 mph 4.2 mph 74 % 0.0 in
10:04 16.1 °F 11.3 °F 1020.9 in NE 3.7 mph 3.7 mph 73 % 0.0 in
10:09 16.5 °F 11.7 °F 1020.9 in NE 3.7 mph 3.7 mph 73 % 0.0 in
10:14 16.7 °F 11.4 °F 1020.9 in NNE 3.7 mph 3.7 mph 71 % 0.0 in
10:19 17.1 °F 11.4 °F 1020.9 in NNW 5.6 mph 5.6 mph 69 % 0.0 in
10:24 17.4 °F 11.4 °F 1020.9 in East 3.9 mph 3.9 mph 68 % 0.0 in
10:29 17.7 °F 11.5 °F 1021.9 in NE 5.0 mph 5.0 mph 67 % 0.0 in
10:34 18.0 °F 11.8 °F 1021.9 in NE 1.9 mph   67 % 0.0 in
10:39 18.2 °F 11.7 °F 1021.9 in NNE 5.6 mph 5.6 mph 66 % 0.0 in
10:44 18.3 °F 11.8 °F 1021.9 in NE 3.7 mph 3.7 mph 66 % 0.0 in
10:49 18.6 °F 11.9 °F 1021.9 in East 3.9 mph 3.9 mph 65 % 0.0 in
10:54 18.5 °F 11.8 °F 1021.9 in North 5.6 mph 5.6 mph 65 % 0.0 in
10:59 18.6 °F 11.7 °F 1021.9 in ENE 7.4 mph 7.4 mph 64 % 0.0 in
11:04 18.4 °F 11.2 °F 1021.9 in NNE 7.4 mph 7.4 mph 63 % 0.0 in
11:09 18.6 °F 11.4 °F 1021.9 in NNE 9.3 mph 9.3 mph 63 % 0.0 in
11:14 18.7 °F 11.3 °F 1021.9 in ENE 9.3 mph 9.3 mph 62 % 0.0 in
11:19 18.9 °F 11.4 °F 1021.9 in NNE 5.6 mph 5.6 mph 62 % 0.0 in
11:24 19.4 °F 11.7 °F 1021.9 in NE 9.3 mph 9.3 mph 61 % 0.0 in
11:29 19.3 °F 11.6 °F 1021.9 in ENE 5.6 mph 5.6 mph 61 % 0.0 in
11:34 19.5 °F 11.5 °F 1021.9 in NNE 7.4 mph 7.4 mph 60 % 0.0 in
11:39 19.3 °F 11.3 °F 1021.9 in East 7.4 mph 7.4 mph 60 % 0.0 in
11:44 19.6 °F 11.6 °F 1021.9 in NE 7.4 mph 7.4 mph 60 % 0.0 in
11:49 19.8 °F 11.8 °F 1021.9 in NE 5.8 mph 5.8 mph 60 % 0.0 in
11:54 20.3 °F 12.0 °F 1021.9 in NW 3.7 mph 3.7 mph 59 % 0.0 in
11:59 20.9 °F 12.3 °F 1021.9 in WSW 5.6 mph 5.6 mph 58 % 0.0 in
12:02 20.9 °F 12.3 °F 1021.9 in South 3.7 mph 3.7 mph 58 % 0.0 in
12:07 21.2 °F 12.6 °F 1021.9 in ENE 5.6 mph 5.6 mph 58 % 0.0 in
12:12 21.1 °F 12.5 °F 1021.9 in ESE 7.9 mph 7.9 mph 58 % 0.0 in
12:17 21.2 °F 12.6 °F 1021.9 in SW 3.7 mph 3.7 mph 58 % 0.0 in
12:22 21.5 °F 12.9 °F 1021.9 in North 7.4 mph 7.4 mph 58 % 0.0 in
12:27 21.8 °F 13.4 °F 1021.9 in ENE 5.8 mph 5.8 mph 59 % 0.0 in
12:32 21.8 °F 13.4 °F 1021.9 in East 7.4 mph 7.4 mph 59 % 0.0 in
12:37 22.1 °F 13.7 °F 1021.9 in ESE 5.6 mph 5.6 mph 59 % 0.0 in
12:42 22.0 °F 13.6 °F 1021.9 in ESE 7.4 mph 7.4 mph 59 % 0.0 in
12:47 22.2 °F 14.1 °F 1021.9 in ESE 11.1 mph 11.1 mph 60 % 0.0 in
12:52 22.1 °F 13.4 °F 1021.9 in ESE 10.0 mph 10.0 mph 58 % 0.0 in
12:57 22.3 °F 13.6 °F 1021.9 in ENE 7.4 mph 7.4 mph 58 % 0.0 in
13:02 22.2 °F 13.6 °F 1021.9 in NW 9.3 mph 9.3 mph 58 % 0.0 in
13:07 22.4 °F 13.7 °F 1021.9 in ENE 7.4 mph 7.4 mph 58 % 0.0 in
13:12 22.8 °F 14.1 °F 1021.9 in SSE 5.6 mph 5.6 mph 58 % 0.0 in
13:17 22.8 °F 13.8 °F 1020.9 in SE 7.4 mph 7.4 mph 57 % 0.0 in
13:22 23.1 °F 14.1 °F 1020.9 in West 9.3 mph 9.3 mph 57 % 0.0 in
13:27 23.9 °F 14.6 °F 1020.9 in South 5.6 mph 5.6 mph 56 % 0.0 in
13:32 24.0 °F 14.4 °F 1020.9 in SSW 6.1 mph 6.1 mph 55 % 0.0 in
13:37 24.3 °F 14.4 °F 1020.9 in West 7.4 mph 7.4 mph 54 % 0.0 in
13:42 23.9 °F 14.0 °F 1020.9 in WSW 9.3 mph 9.3 mph 54 % 0.0 in
13:47 23.8 °F 14.2 °F 1019.9 in WSW 5.8 mph 5.8 mph 55 % 0.0 in
13:52 23.6 °F 13.7 °F 1019.9 in ESE 14.8 mph 14.8 mph 54 % 0.0 in
13:57 23.5 °F 13.9 °F 1019.9 in ENE 11.1 mph 11.1 mph 55 % 0.0 in
14:02 23.8 °F 14.2 °F 1018.8 in East 10.0 mph 10.0 mph 55 % 0.0 in
14:07 23.4 °F 13.6 °F 1018.8 in SSE 11.1 mph 11.1 mph 54 % 0.0 in
14:12 23.4 °F 13.6 °F 1018.8 in ESE 11.1 mph 11.1 mph 54 % 0.0 in
14:17 23.1 °F 13.6 °F 1019.9 in NE 9.3 mph 9.3 mph 55 % 0.0 in
14:22 23.1 °F 13.6 °F 1019.9 in NNE 7.4 mph 7.4 mph 55 % 0.0 in
14:27 23.8 °F 14.2 °F 1019.9 in East 9.5 mph 9.7 mph 55 % 0.0 in
14:32 24.3 °F 14.1 °F 1019.9 in SSE 9.3 mph 9.3 mph 53 % 0.0 in
14:37 24.6 °F 14.4 °F 1019.9 in ESE 9.3 mph 9.3 mph 53 % 0.0 in
14:42 25.1 °F 14.3 °F 1019.9 in East 7.4 mph 7.4 mph 51 % 0.0 in
14:47 24.6 °F 14.1 °F 1019.9 in ESE 13.7 mph 13.7 mph 52 % 0.0 in
14:52 23.9 °F 14.0 °F 1019.9 in East 11.1 mph 11.1 mph 54 % 0.0 in
14:57 24.3 °F 14.1 °F 1019.9 in ESE 10.0 mph 10.0 mph 53 % 0.0 in
15:02 24.3 °F 14.1 °F 1019.9 in ESE 14.8 mph 14.8 mph 53 % 0.0 in
15:07 23.9 °F 14.3 °F 1019.9 in ESE 16.1 mph 16.1 mph 55 % 0.0 in
15:12 23.6 °F 14.3 °F 1019.9 in ESE 11.1 mph 11.1 mph 56 % 0.0 in
15:17 23.3 °F 14.1 °F 1019.9 in ESE 5.6 mph 5.6 mph 56 % 0.0 in
15:22 23.1 °F 13.8 °F 1019.9 in SSW 5.6 mph 6.1 mph 56 % 0.0 in
15:27 23.3 °F 14.3 °F 1019.9 in SE 7.4 mph 7.4 mph 57 % 0.0 in
15:32 23.4 °F 14.1 °F 1019.9 in South 7.4 mph 7.4 mph 56 % 0.0 in
15:37 23.7 °F 14.4 °F 1019.9 in South 8.7 mph 8.7 mph 56 % 0.0 in
15:42 23.7 °F 14.4 °F 1019.9 in SSW 3.7 mph 4.2 mph 56 % 0.0 in
15:47 23.4 °F 14.1 °F 1019.9 in SSW 3.2 mph 3.2 mph 56 % 0.0 in
15:52 23.1 °F 13.8 °F 1019.9 in SW 5.0 mph 5.0 mph 56 % 0.0 in
15:57 22.9 °F 13.9 °F 1019.9 in SSE 9.3 mph 9.3 mph 57 % 0.0 in
16:02 22.6 °F 13.7 °F 1019.9 in ESE 3.7 mph 3.7 mph 57 % 0.0 in
16:07 22.4 °F 13.7 °F 1019.9 in SE 9.3 mph 9.3 mph 58 % 0.0 in
16:12 22.3 °F 13.6 °F 1019.9 in SSE 5.6 mph 6.4 mph 58 % 0.0 in
16:17 22.3 °F 13.6 °F 1019.9 in South 5.6 mph 5.6 mph 58 % 0.0 in
16:22 22.2 °F 13.8 °F 1019.9 in SE 7.4 mph 7.4 mph 59 % 0.0 in
16:27 22.2 °F 14.1 °F 1019.9 in South 5.3 mph 5.3 mph 60 % 0.0 in
16:32 22.0 °F 13.9 °F 1019.9 in ESE 9.3 mph 9.3 mph 60 % 0.0 in
16:37 21.9 °F 14.1 °F 1019.9 in SSE 7.6 mph 7.6 mph 61 % 0.0 in
16:42 22.0 °F 14.1 °F 1019.9 in South 7.4 mph 7.4 mph 61 % 0.0 in
16:47 22.0 °F 14.1 °F 1018.8 in SSW 5.6 mph 5.6 mph 61 % 0.0 in
16:52 22.0 °F 14.1 °F 1018.8 in SSW 5.6 mph 5.8 mph 61 % 0.0 in
16:57 22.0 °F 14.1 °F 1018.8 in South 11.1 mph 11.1 mph 61 % 0.0 in
17:02 22.0 °F 14.1 °F 1018.8 in South 7.4 mph 7.4 mph 61 % 0.0 in
17:07 22.1 °F 14.2 °F 1018.8 in SSE 10.3 mph 10.3 mph 61 % 0.0 in
17:12 22.3 °F 14.4 °F 1018.8 in SSE 11.1 mph 11.1 mph 61 % 0.0 in
17:17 22.7 °F 14.8 °F 1018.8 in West 5.6 mph 5.6 mph 61 % 0.0 in
17:22 23.1 °F 14.9 °F 1018.8 in SW 4.2 mph 4.7 mph 60 % 0.0 in
17:27 23.2 °F 15.0 °F 1018.8 in SW 9.5 mph 9.5 mph 60 % 0.0 in
17:32 22.8 °F 14.4 °F 1018.8 in SW 5.6 mph 5.6 mph 59 % 0.0 in
17:37 22.7 °F 14.3 °F 1018.8 in WSW 3.7 mph   59 % 0.0 in
17:43 23.0 °F 14.6 °F 1018.8 in WSW 5.6 mph 5.6 mph 59 % 0.0 in
17:48 23.1 °F 14.7 °F 1018.8 in SW 13.0 mph 13.0 mph 59 % 0.0 in
17:53 22.8 °F 14.6 °F 1018.8 in WSW 11.9 mph 11.9 mph 60 % 0.0 in
17:58 22.9 °F 14.7 °F 1018.8 in South 9.5 mph 9.5 mph 60 % 0.0 in
18:03 22.8 °F 14.4 °F 1018.8 in South 9.0 mph 9.0 mph 59 % 0.0 in
18:08 22.5 °F 14.1 °F 1018.8 in SW 10.0 mph 10.0 mph 59 % 0.0 in
18:13 22.6 °F 14.2 °F 1018.8 in SW 9.3 mph 9.3 mph 59 % 0.0 in
18:18 22.5 °F 14.3 °F 1018.8 in SW 7.4 mph 7.4 mph 60 % 0.0 in
18:23 22.5 °F 14.3 °F 1018.8 in SW 9.3 mph 9.3 mph 60 % 0.0 in
18:28 22.3 °F 14.2 °F 1018.8 in South 7.4 mph 7.4 mph 60 % 0.0 in
18:33 22.3 °F 14.4 °F 1018.8 in SW 5.8 mph 5.8 mph 61 % 0.0 in
18:38 22.2 °F 14.3 °F 1018.8 in SW 7.4 mph 7.4 mph 61 % 0.0 in
18:43 21.9 °F 14.3 °F 1018.8 in West 7.4 mph 7.4 mph 62 % 0.0 in
18:48 21.8 °F 14.4 °F 1018.8 in West 5.6 mph 5.6 mph 63 % 0.0 in
18:53 21.6 °F 14.3 °F 1018.8 in South 7.4 mph 7.4 mph 63 % 0.0 in
18:58 21.5 °F 14.2 °F 1019.9 in SW 9.3 mph 9.3 mph 63 % 0.0 in
19:03 21.3 °F 13.9 °F 1019.9 in SSE 7.4 mph 7.4 mph 63 % 0.0 in
19:08 21.1 °F 14.0 °F 1019.9 in SW 3.9 mph 3.9 mph 64 % 0.0 in
19:13 20.9 °F 14.1 °F 1019.9 in SSW 9.3 mph 9.3 mph 65 % 0.0 in
19:18 20.7 °F 13.9 °F 1019.9 in ESE 7.4 mph 7.4 mph 65 % 0.0 in
19:23 20.5 °F 13.9 °F 1019.9 in West 5.6 mph 5.6 mph 66 % 0.0 in
19:28 20.4 °F 13.8 °F 1018.8 in WSW 5.6 mph 5.6 mph 66 % 0.0 in
19:33 20.2 °F 13.9 °F 1018.8 in SW 3.7 mph 3.7 mph 67 % 0.0 in
19:38 20.1 °F 13.8 °F 1018.8 in SW 3.7 mph 3.7 mph 67 % 0.0 in
19:43 20.0 °F 13.7 °F 1019.9 in WSW 3.2 mph 3.9 mph 67 % 0.0 in
19:48 19.9 °F 13.8 °F 1019.9 in SW 3.7 mph 3.7 mph 68 % 0.0 in
19:53 19.8 °F 13.9 °F 1019.9 in SW 3.7 mph 3.7 mph 69 % 0.0 in
19:58 19.7 °F 13.8 °F 1019.9 in SW 1.9 mph   69 % 0.0 in
20:03 19.6 °F 14.0 °F 1019.9 in Calm     70 % 0.0 in
20:08 19.5 °F 13.9 °F 1019.9 in SW 2.6 mph 2.6 mph 70 % 0.0 in
20:18 19.3 °F 13.9 °F 1019.9 in SW 1.9 mph   71 % 0.0 in
20:23 19.3 °F 13.9 °F 1019.9 in SW 1.9 mph   71 % 0.0 in
20:28 19.2 °F 14.1 °F 1018.8 in SW 1.9 mph   72 % 0.0 in
20:33 19.2 °F 14.1 °F 1018.8 in Calm     72 % 0.0 in
20:38 19.1 °F 13.9 °F 1018.8 in Calm     72 % 0.0 in
20:43 19.0 °F 13.8 °F 1019.9 in Calm     72 % 0.0 in
20:48 19.0 °F 14.1 °F 1019.9 in Calm     73 % 0.0 in
20:53 18.9 °F 14.2 °F 1019.9 in Calm     74 % 0.0 in
20:58 18.9 °F 14.2 °F 1019.9 in Calm     74 % 0.0 in
21:03 18.8 °F 14.3 °F 1019.9 in Calm     75 % 0.0 in
21:08 18.8 °F 14.3 °F 1019.9 in Calm     75 % 0.0 in
21:18 18.7 °F 14.2 °F 1019.9 in Calm     75 % 0.0 in
21:23 18.6 °F 14.3 °F 1019.9 in Calm     76 % 0.0 in
21:28 18.5 °F 14.2 °F 1019.9 in Calm     76 % 0.0 in
21:33 18.5 °F 14.2 °F 1019.9 in Calm     76 % 0.0 in
21:38 18.4 °F 14.1 °F 1019.9 in Calm     76 % 0.0 in
21:43 18.3 °F 14.2 °F 1019.9 in Calm     77 % 0.0 in
21:48 18.3 °F 14.2 °F 1019.9 in Calm     77 % 0.0 in
21:53 18.3 °F 14.2 °F 1019.9 in Calm     77 % 0.0 in
21:58 18.3 °F 14.2 °F 1019.9 in Calm     77 % 0.0 in
22:08 18.3 °F 14.4 °F 1019.9 in Calm     78 % 0.0 in
22:13 18.3 °F 14.4 °F 1019.9 in Calm     78 % 0.0 in
22:18 18.2 °F 14.3 °F 1019.9 in Calm     78 % 0.0 in
22:23 18.2 °F 14.3 °F 1019.9 in Calm     78 % 0.0 in
22:33 18.2 °F 14.3 °F 1020.9 in Calm     78 % 0.0 in
22:38 18.2 °F 14.5 °F 1020.9 in Calm     79 % 0.0 in
22:43 18.2 °F 14.5 °F 1019.9 in Calm     79 % 0.0 in
22:48 18.2 °F 14.5 °F 1019.9 in Calm     79 % 0.0 in
22:58 18.2 °F 14.3 °F 1019.9 in Calm     78 % 0.0 in
23:03 18.1 °F 14.2 °F 1019.9 in Calm     78 % 0.0 in
23:08 18.1 °F 14.2 °F 1019.9 in Calm     78 % 0.0 in
23:13 18.1 °F 14.2 °F 1019.9 in Calm     78 % 0.0 in
23:18 18.1 °F 14.4 °F 1019.9 in Calm     79 % 0.0 in
23:23 18.0 °F 14.3 °F 1019.9 in Calm     79 % 0.0 in
23:28 18.0 °F 14.3 °F 1019.9 in Calm     79 % 0.0 in
23:33 18.0 °F 14.3 °F 1019.9 in Calm     79 % 0.0 in
23:38 18.0 °F 14.3 °F 1019.9 in Calm     79 % 0.0 in
23:43 18.0 °F 14.3 °F 1019.9 in East 1.9 mph   79 % 0.0 in
23:48 18.0 °F 14.5 °F 1019.9 in East 2.3 mph 2.3 mph 80 % 0.0 in
23:54 17.8 °F 14.1 °F 1019.9 in Calm     79 % 0.0 in
Meteo Sesrovires
Elogis d' Weather Underground - 2 mb

Guio original per  Jim McMurry - jmcmurry@mwt.net Adaptat per a la plantilla per  Wim van der Kuil - Leuven-Template.eu

Trobareu la nostra informacio del temps tambe a:

Weather Underground

AWEKAS